Hlavní strana
METAR-TAF:

METAR-TAF

Letiště :

Mosjøen, Norsko

zeměpisná šířka: 65-48N, zeměpisná délka: 013-08E, výška: 70 m

Aktuální stav počasí

Zpráva byla vytvořena před 11 minutami, v 18:20 UTC
Jižní vítr 3 kt
Teplota -5°C
Vlhkost vzduchu 86%
Tlak 1019 hPa
Viditelnost 10 km a více
Skoro jasno ve výšce 2800 ft

METAR: ENMS 071820Z 18003KT 9999 FEW028 M05/M07 Q1019 RMK WIND 412FT 14002KT

Čas: 19:31 (18:31 UTC)


TAF: chybějící

Stav a předpovědi počasí z více než 4 000 letišť (zprávy METAR a TAF).

Červené a žluté tečky na mapě představují dostupné meteorologické stanice.

Když kurzor umístíte na tečku, zobrazí se název stanice.

Pak kliknutím zobrazíte stav a předpověď počasí.

Chcete-li změnit mapu, kliknutím na zelené tlačítko se znaménkem +mapu přiblížíte, kliknutím na zelené tlačítko se znaménkem – mapu oddálíte a kliknutím na zelené šipky přejdete na sousední mapy.


METAR-TAF: